Terminal Aerodrome Forecast
Issued by NWS Shreveport, LA

Home | Current Version | Previous Version | Text Only | Print | Product List | Glossary On
Versions: 1 2 3 4 5 6 7 8 9 10 11 12 13 14 15 16 17 18
067
FTUS44 KSHV 161742
TAFLFK
TAF
KLFK 161742Z 1618/1718 18012KT P6SM SCT040
     FM170100 16007KT P6SM SKC
     FM170700 17005KT P6SM BKN015
      TEMPO 1710/1713 5SM BR OVC008
     FM171400 21010KT P6SM SCT030=

USA.gov is the U.S. government's official web portal to all federal, state and local government web resources and services.